Time;durP1;ratioP1;P1;durP2;ratioP2;P2;SDS_P1;SDS_P2;PMS_P1;PMS_P2;Temp;Humidity;BMP_temperature;BMP_pressure;BME280_temperature;BME280_humidity;BME280_pressure;Samples;Min_cycle;Max_cycle;Signal;HPM_P1;HPM_P2
2022/01/18 00:00:29;;;;;;;16.73;4.67;;;6.70;36.50;;;;;;5033039;28;20268;-61
2022/01/18 00:02:58;;;;;;;19.83;4.77;;;6.60;38.40;;;;;;5033013;28;20206;-61
2022/01/18 00:05:25;;;;;;;29.50;4.93;;;6.60;40.50;;;;;;5033201;28;20214;-61
2022/01/18 00:07:52;;;;;;;16.70;4.97;;;6.60;42.30;;;;;;5032678;28;20214;-61
2022/01/18 00:10:19;;;;;;;29.53;5.90;;;6.60;44.00;;;;;;5032839;28;20234;-61
2022/01/18 00:13:08;;;;;;;22.37;5.00;;;6.60;45.60;;;;;;5032751;28;20669;-61
2022/01/18 00:15:41;;;;;;;14.53;3.90;;;6.70;46.80;;;;;;5033198;28;20199;-60
2022/01/18 00:18:11;;;;;;;17.20;5.60;;;6.60;46.40;;;;;;5032755;28;20250;-60
2022/01/18 00:23:25;;;;;;;19.27;3.87;;;6.70;49.90;;;;;;5032216;28;20633;-60
2022/01/18 00:25:54;;;;;;;24.57;4.57;;;6.70;50.30;;;;;;5032523;28;20207;-60
2022/01/18 00:28:22;;;;;;;23.90;4.63;;;6.70;52.30;;;;;;5032800;28;20573;-61
2022/01/18 00:36:28;;;;;;;16.63;3.70;;;6.80;53.00;;;;;;5031574;28;20205;-61
2022/01/18 00:38:56;;;;;;;18.83;3.97;;;6.80;51.90;;;;;;5032496;28;20202;-61
2022/01/18 00:41:24;;;;;;;13.13;3.70;;;6.80;47.60;;;;;;5032298;28;20231;-61
2022/01/18 00:43:52;;;;;;;12.87;3.43;;;6.80;45.10;;;;;;5032481;28;20206;-61
2022/01/18 00:46:20;;;;;;;19.80;4.00;;;6.80;43.10;;;;;;5032341;28;20662;-59
2022/01/18 00:48:47;;;;;;;21.30;4.00;;;6.90;42.20;;;;;;5032291;28;20210;-61
2022/01/18 00:51:15;;;;;;;19.73;4.17;;;6.90;40.20;;;;;;5032134;28;20230;-61
2022/01/18 00:53:44;;;;;;;19.67;3.97;;;6.80;38.20;;;;;;5032008;28;20208;-60
2022/01/18 00:56:20;;;;;;;18.93;4.20;;;6.80;37.40;;;;;;5031927;28;20297;-62
2022/01/18 00:58:48;;;;;;;16.77;4.33;;;6.80;33.10;;;;;;5031483;28;20206;-60
2022/01/18 01:01:16;;;;;;;23.40;4.00;;;6.80;29.60;;;;;;5031992;28;20279;-60
2022/01/18 01:03:44;;;;;;;24.57;4.33;;;6.80;28.00;;;;;;5032236;28;20241;-61
2022/01/18 01:06:12;;;;;;;18.77;3.90;;;6.80;27.50;;;;;;5031943;28;20830;-61
2022/01/18 01:08:39;;;;;;;21.93;3.87;;;6.80;27.40;;;;;;5031758;28;20301;-61
2022/01/18 01:11:07;;;;;;;20.87;4.50;;;6.80;27.40;;;;;;5031446;28;20272;-61
2022/01/18 01:13:35;;;;;;;14.00;3.73;;;6.80;27.80;;;;;;5031904;28;20222;-61
2022/01/18 01:16:15;;;;;;;22.50;3.90;;;6.80;27.20;;;;;;5031626;28;20210;-61
2022/01/18 01:18:50;;;;;;;13.30;2.90;;;6.80;23.60;;;;;;5031919;28;20760;-61
2022/01/18 01:32:45;;;;;;;12.23;2.40;;;6.70;1.00;;;;;;5032094;28;20201;-61
2022/01/18 01:35:15;;;;;;;11.53;2.50;;;6.70;1.00;;;;;;5031351;28;20206;-61
2022/01/18 01:43:29;;;;;;;9.07;2.33;;;6.70;1.00;;;;;;4951041;29;20512;-61
2022/01/18 01:45:58;;;;;;;11.50;2.77;;;6.70;1.00;;;;;;4950958;29;20213;-61
2022/01/18 01:48:26;;;;;;;11.87;2.37;;;6.70;1.00;;;;;;4988173;28;20218;-61
2022/01/18 01:51:01;;;;;;;9.67;2.73;;;6.80;1.00;;;;;;5031473;28;20304;-61
2022/01/18 01:53:30;;;;;;;18.33;3.40;;;6.80;1.00;;;;;;5031426;28;20208;-61
2022/01/18 01:55:57;;;;;;;13.43;3.63;;;6.80;1.00;;;;;;5030876;28;20233;-61
2022/01/18 01:58:27;;;;;;;14.83;3.87;;;6.80;1.00;;;;;;5031192;28;20214;-61
2022/01/18 02:00:56;;;;;;;14.33;3.20;;;6.80;1.00;;;;;;5030825;28;20222;-62
2022/01/18 02:03:23;;;;;;;13.37;3.30;;;6.70;1.00;;;;;;5031525;28;20269;-61
2022/01/18 02:05:50;;;;;;;18.70;3.37;;;6.70;1.00;;;;;;5031253;28;20278;-62
2022/01/18 02:08:17;;;;;;;17.10;3.73;;;6.70;1.00;;;;;;5031922;28;20256;-61
2022/01/18 02:10:45;;;;;;;20.73;3.20;;;6.80;1.00;;;;;;5034895;28;20238;-61
2022/01/18 02:13:13;;;;;;;13.13;3.37;;;6.80;1.00;;;;;;5035083;28;20590;-61
2022/01/18 02:15:45;;;;;;;16.67;3.60;;;6.80;1.00;;;;;;5035145;28;20207;-61
2022/01/18 02:23:41;;;;;;;13.00;3.47;;;6.80;2.40;;;;;;5034808;28;20536;-61
2022/01/18 02:26:07;;;;;;;10.70;2.87;;;6.70;5.10;;;;;;5034602;28;20743;-61
2022/01/18 02:28:35;;;;;;;17.77;3.70;;;6.70;6.40;;;;;;5034510;28;20206;-61
2022/01/18 02:31:02;;;;;;;17.03;3.23;;;6.60;10.90;;;;;;5034601;28;20796;-61
2022/01/18 02:33:29;;;;;;;22.87;3.83;;;6.60;14.20;;;;;;5034554;28;20208;-61
2022/01/18 02:35:57;;;;;;;11.17;2.80;;;6.60;17.40;;;;;;5034311;28;20206;-61
2022/01/18 02:38:24;;;;;;;14.47;3.73;;;6.60;20.50;;;;;;5034474;28;20206;-61
2022/01/18 02:40:50;;;;;;;17.60;3.83;;;6.60;24.20;;;;;;5034480;28;20643;-61
2022/01/18 02:46:01;;;;;;;18.60;3.73;;;6.60;28.50;;;;;;5034571;28;20580;-61
2022/01/18 02:48:28;;;;;;;13.20;3.17;;;6.60;31.20;;;;;;5034588;28;20237;-61
2022/01/18 02:50:55;;;;;;;22.60;4.03;;;6.70;33.60;;;;;;5034083;28;20316;-61
2022/01/18 02:53:23;;;;;;;18.60;4.10;;;6.70;34.90;;;;;;5034499;28;20207;-62
2022/01/18 02:55:51;;;;;;;23.67;4.80;;;6.70;36.00;;;;;;5034413;28;20262;-61
2022/01/18 02:58:24;;;;;;;16.00;4.03;;;6.70;37.70;;;;;;5034583;28;20241;-61
2022/01/18 03:03:35;;;;;;;17.17;3.67;;;6.70;40.80;;;;;;5033020;28;20202;-60
2022/01/18 03:06:03;;;;;;;20.43;4.07;;;6.80;39.70;;;;;;5034390;28;20202;-61
2022/01/18 03:08:33;;;;;;;20.30;3.57;;;6.80;37.50;;;;;;5033917;28;20304;-61
2022/01/18 03:11:00;;;;;;;18.43;3.93;;;6.80;35.60;;;;;;5034012;28;20265;-62
2022/01/18 03:13:27;;;;;;;12.53;3.53;;;6.70;34.00;;;;;;5033520;28;20218;-61
2022/01/18 03:15:54;;;;;;;15.83;3.90;;;6.70;35.20;;;;;;5033626;28;20674;-60
2022/01/18 03:18:21;;;;;;;15.43;4.20;;;6.70;36.60;;;;;;5033615;28;20202;-61
2022/01/18 03:20:48;;;;;;;13.47;3.50;;;6.60;37.80;;;;;;5033101;28;20230;-61
2022/01/18 03:23:18;;;;;;;13.90;4.00;;;6.70;40.20;;;;;;5033927;28;20237;-61
2022/01/18 03:25:56;;;;;;;19.70;4.10;;;6.60;39.30;;;;;;5033831;28;20210;-61
2022/01/18 03:28:23;;;;;;;20.57;4.07;;;6.50;40.30;;;;;;5033863;28;20209;-61
2022/01/18 03:30:54;;;;;;;21.07;4.10;;;6.50;43.10;;;;;;5033500;28;20226;-61
2022/01/18 03:33:23;;;;;;;17.27;4.03;;;6.60;46.20;;;;;;5033621;28;20293;-60
2022/01/18 03:35:53;;;;;;;24.73;4.17;;;6.60;46.70;;;;;;5033495;28;20207;-60
2022/01/18 03:38:21;;;;;;;21.97;4.57;;;6.60;47.50;;;;;;5034083;28;20203;-61
2022/01/18 03:40:49;;;;;;;17.80;4.07;;;6.50;47.50;;;;;;5033663;28;20261;-60
2022/01/18 03:43:16;;;;;;;21.10;4.30;;;6.60;49.90;;;;;;5033443;28;20253;-60
2022/01/18 03:45:46;;;;;;;25.70;4.47;;;6.60;48.70;;;;;;5033679;28;20210;-61
2022/01/18 03:48:24;;;;;;;17.33;4.30;;;6.60;47.30;;;;;;5033446;28;20293;-61
2022/01/18 03:50:51;;;;;;;14.00;3.50;;;6.60;47.70;;;;;;5033308;28;20317;-60
2022/01/18 03:53:19;;;;;;;20.63;4.20;;;6.60;47.10;;;;;;5033463;28;20261;-61
2022/01/18 03:55:46;;;;;;;17.53;4.17;;;6.50;47.30;;;;;;5033450;28;20830;-60
2022/01/18 03:58:14;;;;;;;17.57;4.27;;;6.50;48.10;;;;;;5032979;28;20562;-61
2022/01/18 04:00:41;;;;;;;17.73;3.47;;;6.50;50.10;;;;;;5033303;28;20732;-61
2022/01/18 04:03:08;;;;;;;19.20;3.77;;;6.50;52.10;;;;;;5033222;28;20215;-61
2022/01/18 04:05:35;;;;;;;17.47;3.70;;;6.50;52.40;;;;;;5033170;28;20214;-61
2022/01/18 04:08:01;;;;;;;21.27;4.43;;;6.50;51.80;;;;;;5032755;28;20202;-60
2022/01/18 04:10:28;;;;;;;21.97;4.43;;;6.50;51.00;;;;;;5032900;28;20700;-61
2022/01/18 04:12:56;;;;;;;15.63;3.57;;;6.50;51.20;;;;;;5033095;28;20276;-61
2022/01/18 04:15:24;;;;;;;18.43;4.30;;;6.50;51.20;;;;;;5032914;28;20221;-61
2022/01/18 04:18:08;;;;;;;17.00;3.97;;;6.40;51.70;;;;;;5032832;28;20770;-61
2022/01/18 04:26:52;;;;;;;17.53;3.70;;;6.50;58.10;;;;;;4991859;28;20232;-61
2022/01/18 04:28:50;;;;;;;21.07;3.83;;;6.40;56.20;;;;;;5032362;28;20643;-61
2022/01/18 04:31:18;;;;;;;20.27;4.10;;;6.40;54.60;;;;;;5032203;28;20245;-61
2022/01/18 04:33:45;;;;;;;18.10;4.27;;;6.40;54.30;;;;;;5032392;28;20210;-61
2022/01/18 04:36:11;;;;;;;17.97;3.77;;;6.30;52.30;;;;;;5032386;28;20206;-61
2022/01/18 04:38:39;;;;;;;17.00;4.50;;;6.10;53.50;;;;;;5031955;28;20217;-61
2022/01/18 04:41:10;;;;;;;19.27;3.77;;;6.10;56.90;;;;;;5032540;28;20248;-61
2022/01/18 04:43:48;;;;;;;12.80;3.17;;;6.10;60.70;;;;;;5032082;28;20246;-61
2022/01/18 04:49:01;;;;;;;12.33;3.37;;;6.20;61.70;;;;;;5032134;28;20673;-60
2022/01/18 04:51:28;;;;;;;17.97;3.03;;;6.10;58.10;;;;;;5031979;28;20226;-60
2022/01/18 04:53:58;;;;;;;8.03;2.90;;;6.00;58.60;;;;;;5031939;28;20214;-61
2022/01/18 04:57:51;;;;;;;18.63;4.37;;;6.00;65.10;;;;;;5031984;28;20229;-61
2022/01/18 04:59:17;;;;;;;11.03;3.70;;;6.10;67.90;;;;;;5031574;28;20681;-61
2022/01/18 05:01:47;;;;;;;20.00;4.40;;;6.10;71.10;;;;;;5031726;28;20242;-61
2022/01/18 05:04:15;;;;;;;16.50;3.60;;;6.10;71.20;;;;;;5031824;28;20846;-60
2022/01/18 05:06:43;;;;;;;15.40;3.97;;;6.10;74.80;;;;;;5031664;28;20750;-61
2022/01/18 05:09:11;;;;;;;15.57;3.57;;;6.10;75.30;;;;;;5031885;28;20625;-62
2022/01/18 05:11:47;;;;;;;13.50;4.03;;;6.10;75.90;;;;;;5031467;28;20226;-62
2022/01/18 05:14:23;;;;;;;23.97;4.10;;;6.10;77.50;;;;;;5031689;28;20309;-61
2022/01/18 05:16:57;;;;;;;11.83;3.50;;;6.20;78.80;;;;;;5031381;28;20594;-62
2022/01/18 05:19:38;;;;;;;15.17;3.37;;;6.20;78.50;;;;;;5031707;28;20207;-61
2022/01/18 05:24:50;;;;;;;16.00;3.90;;;6.20;78.20;;;;;;5031946;28;20275;-61
2022/01/18 05:27:16;;;;;;;18.00;3.67;;;6.20;78.30;;;;;;5031406;28;20218;-62
2022/01/18 05:29:43;;;;;;;15.63;3.50;;;6.10;77.40;;;;;;5031550;28;20260;-61
2022/01/18 05:32:10;;;;;;;15.47;3.97;;;6.10;78.70;;;;;;5025999;28;20226;-61
2022/01/18 05:34:38;;;;;;;20.00;3.97;;;6.10;81.80;;;;;;5030713;28;20213;-60
2022/01/18 05:37:05;;;;;;;15.03;3.77;;;6.20;82.70;;;;;;5031466;28;20264;-62
2022/01/18 05:39:32;;;;;;;11.33;3.67;;;6.20;82.10;;;;;;5031486;28;20261;-61
2022/01/18 05:41:59;;;;;;;20.70;3.37;;;6.20;82.10;;;;;;5031249;28;20206;-61
2022/01/18 05:44:25;;;;;;;15.13;3.87;;;6.20;81.10;;;;;;5030524;28;20210;-61
2022/01/18 05:46:52;;;;;;;11.00;3.80;;;6.20;80.90;;;;;;5030918;28;20210;-61
2022/01/18 05:49:19;;;;;;;16.13;4.77;;;6.10;81.90;;;;;;5031076;28;20610;-62
2022/01/18 05:51:47;;;;;;;14.20;4.27;;;6.20;84.60;;;;;;5030460;28;20312;-62
2022/01/18 05:54:14;;;;;;;21.93;5.60;;;6.20;84.60;;;;;;5031058;28;20210;-61
2022/01/18 05:56:40;;;;;;;20.70;5.37;;;6.30;84.40;;;;;;5030334;28;20213;-61
2022/01/18 05:59:09;;;;;;;13.40;4.27;;;6.30;84.70;;;;;;5031162;28;20207;-62
2022/01/18 06:01:46;;;;;;;10.20;3.93;;;6.30;83.90;;;;;;5030523;28;20226;-61
2022/01/18 06:06:49;;;;;;;16.23;4.27;;;6.30;83.50;;;;;;5030767;28;20206;-61
2022/01/18 06:07:03;;;;;;;14.50;4.93;;;6.20;81.20;;;;;;5030580;28;20221;-61
2022/01/18 06:09:29;;;;;;;15.43;5.80;;;6.30;82.60;;;;;;5030863;28;20296;-61
2022/01/18 06:11:56;;;;;;;18.07;5.13;;;6.30;81.60;;;;;;5030690;28;20227;-60
2022/01/18 06:14:23;;;;;;;18.03;5.63;;;6.30;80.60;;;;;;5030762;28;20214;-61
2022/01/18 06:16:50;;;;;;;21.30;5.80;;;6.30;76.30;;;;;;5031021;28;20839;-61
2022/01/18 06:19:16;;;;;;;20.23;6.33;;;6.30;72.10;;;;;;5030811;28;20263;-61
2022/01/18 06:21:43;;;;;;;16.83;5.20;;;6.20;70.90;;;;;;5030489;28;20252;-62
2022/01/18 06:24:11;;;;;;;18.93;6.20;;;6.10;74.00;;;;;;5030806;28;20206;-65
2022/01/18 06:26:39;;;;;;;16.80;6.17;;;6.10;75.90;;;;;;5030358;28;20206;-63
2022/01/18 06:29:05;;;;;;;20.37;6.63;;;6.20;78.30;;;;;;5036146;28;20202;-63
2022/01/18 06:31:32;;;;;;;17.40;6.63;;;6.20;79.30;;;;;;5051452;28;20241;-62
2022/01/18 06:33:59;;;;;;;25.83;7.23;;;6.30;78.50;;;;;;5052929;28;20215;-64
2022/01/18 06:36:25;;;;;;;25.33;6.63;;;6.30;77.80;;;;;;5044352;28;20688;-62
2022/01/18 06:38:52;;;;;;;16.57;6.80;;;6.40;76.40;;;;;;5030303;28;20677;-62
2022/01/18 06:41:20;;;;;;;26.67;7.33;;;6.30;74.90;;;;;;5030539;28;20717;-62
2022/01/18 06:43:47;;;;;;;27.00;7.93;;;6.30;74.20;;;;;;5030202;28;20202;-63
2022/01/18 06:46:14;;;;;;;32.93;8.57;;;6.20;74.90;;;;;;5030481;28;20208;-63
2022/01/18 06:48:44;;;;;;;30.77;8.33;;;6.30;77.40;;;;;;5029984;28;20748;-63
2022/01/18 06:51:11;;;;;;;20.63;7.77;;;6.30;78.10;;;;;;5030705;28;20232;-63
2022/01/18 06:53:44;;;;;;;20.83;7.73;;;6.40;77.60;;;;;;5030294;28;20578;-64
2022/01/18 06:56:11;;;;;;;24.23;8.30;;;6.40;75.80;;;;;;5032323;28;20627;-63
2022/01/18 06:58:39;;;;;;;26.63;9.23;;;6.40;72.30;;;;;;5034578;28;20280;-63
2022/01/18 07:01:06;;;;;;;27.23;9.50;;;6.40;69.30;;;;;;5033503;28;20223;-63
2022/01/18 07:03:32;;;;;;;28.80;10.37;;;6.40;67.10;;;;;;5033587;28;20210;-62
2022/01/18 07:05:59;;;;;;;24.17;9.10;;;6.40;65.90;;;;;;5033577;28;20593;-62
2022/01/18 07:08:26;;;;;;;26.90;9.17;;;6.40;64.00;;;;;;5033714;28;20615;-63
2022/01/18 07:10:52;;;;;;;27.30;9.63;;;6.30;62.50;;;;;;5033628;28;20230;-62
2022/01/18 07:13:19;;;;;;;27.60;10.23;;;6.30;62.90;;;;;;5032960;28;20226;-62
2022/01/18 07:15:47;;;;;;;37.17;11.47;;;6.30;62.80;;;;;;5033536;28;20210;-63
2022/01/18 07:18:14;;;;;;;32.10;12.00;;;6.30;64.60;;;;;;5033489;28;20202;-62
2022/01/18 07:20:41;;;;;;;29.83;11.57;;;6.30;66.60;;;;;;5033648;28;20222;-62
2022/01/18 07:23:11;;;;;;;23.60;11.60;;;6.30;67.30;;;;;;5033236;28;20210;-62
2022/01/18 07:25:42;;;;;;;26.27;11.23;;;6.30;67.30;;;;;;5033544;28;20206;-62
2022/01/18 07:28:09;;;;;;;33.57;12.70;;;6.20;66.50;;;;;;5033264;28;20557;-62
2022/01/18 07:30:35;;;;;;;32.63;12.60;;;6.20;69.90;;;;;;5033424;28;20234;-63
2022/01/18 07:33:04;;;;;;;32.23;13.13;;;6.20;72.70;;;;;;5033190;28;20622;-63
2022/01/18 07:35:32;;;;;;;31.43;12.00;;;6.20;75.20;;;;;;5032846;28;20680;-64
2022/01/18 07:38:00;;;;;;;38.83;13.70;;;6.10;76.00;;;;;;5033101;28;20228;-64
2022/01/18 07:40:27;;;;;;;34.83;13.30;;;6.10;80.10;;;;;;5032997;28;20313;-65
2022/01/18 07:42:54;;;;;;;31.43;13.63;;;6.20;83.90;;;;;;5032438;28;21029;-64
2022/01/18 07:45:21;;;;;;;40.57;14.83;;;6.10;85.10;;;;;;5033281;28;20202;-65
2022/01/18 07:47:48;;;;;;;37.40;14.23;;;6.10;87.70;;;;;;5032871;28;20673;-65
2022/01/18 07:50:16;;;;;;;40.20;15.03;;;6.20;90.10;;;;;;5033407;28;20240;-62
2022/01/18 07:52:43;;;;;;;38.60;13.47;;;6.20;90.40;;;;;;5032697;28;20280;-62
2022/01/18 07:55:10;;;;;;;42.83;14.03;;;6.30;90.50;;;;;;5032761;28;20210;-62
2022/01/18 07:57:41;;;;;;;30.23;14.27;;;6.30;90.90;;;;;;5032667;28;20672;-66
2022/01/18 08:00:09;;;;;;;36.43;14.23;;;6.30;91.50;;;;;;5032606;28;20321;-67
2022/01/18 08:02:37;;;;;;;35.00;13.97;;;6.30;92.00;;;;;;5032717;28;20221;-66
2022/01/18 08:05:04;;;;;;;41.40;14.50;;;6.30;92.90;;;;;;5033035;28;20214;-66
2022/01/18 08:07:32;;;;;;;42.63;14.33;;;6.40;93.30;;;;;;5032387;28;20217;-65
2022/01/18 08:09:59;;;;;;;41.50;14.40;;;6.30;92.60;;;;;;5032507;28;20372;-64
2022/01/18 08:12:26;;;;;;;36.87;13.47;;;6.30;94.00;;;;;;5032431;28;20661;-65
2022/01/18 08:14:59;;;;;;;32.43;13.57;;;6.30;94.70;;;;;;5032477;28;20218;-63
2022/01/18 08:17:26;;;;;;;34.77;14.57;;;6.30;95.10;;;;;;5032241;28;20252;-64
2022/01/18 08:19:52;;;;;;;41.63;13.47;;;6.20;95.80;;;;;;5032480;28;20275;-63
2022/01/18 08:22:19;;;;;;;37.37;12.80;;;6.30;97.20;;;;;;5031862;28;20214;-64
2022/01/18 08:24:47;;;;;;;39.70;13.87;;;6.20;97.90;;;;;;5032660;28;20265;-63
2022/01/18 08:27:14;;;;;;;34.20;13.23;;;6.20;99.00;;;;;;5032176;28;20206;-63
2022/01/18 08:29:41;;;;;;;41.83;14.30;;;6.20;99.70;;;;;;5032309;28;20264;-63
2022/01/18 08:32:08;;;;;;;38.67;14.17;;;6.20;99.90;;;;;;5031936;28;20340;-62
2022/01/18 08:34:34;;;;;;;37.57;13.80;;;6.20;99.90;;;;;;5031907;28;20210;-62
2022/01/18 08:37:01;;;;;;;35.07;13.07;;;6.30;99.90;;;;;;5031944;28;20202;-59
2022/01/18 08:39:28;;;;;;;41.33;15.43;;;6.40;99.90;;;;;;5031928;28;20209;-60
2022/01/18 08:41:56;;;;;;;38.23;13.67;;;6.50;99.90;;;;;;5032016;28;20206;-58
2022/01/18 08:44:23;;;;;;;33.90;15.30;;;6.50;99.90;;;;;;5032299;28;20723;-60
2022/01/18 08:46:49;;;;;;;28.97;13.37;;;6.50;99.90;;;;;;5031617;28;20210;-59
2022/01/18 08:49:16;;;;;;;26.20;12.77;;;6.60;99.90;;;;;;5031655;28;20209;-58
2022/01/18 08:51:43;;;;;;;37.13;12.87;;;6.70;99.90;;;;;;5031217;28;20632;-58
2022/01/18 08:54:10;;;;;;;31.97;11.93;;;6.70;99.90;;;;;;5032446;28;20580;-59
2022/01/18 08:56:37;;;;;;;29.33;10.73;;;6.70;99.90;;;;;;5032805;28;20212;-61
2022/01/18 08:59:05;;;;;;;30.50;11.53;;;6.70;99.90;;;;;;5031983;28;20212;-64
2022/01/18 09:01:32;;;;;;;28.50;9.80;;;6.70;99.90;;;;;;5031471;28;20289;-62
2022/01/18 09:04:01;;;;;;;26.37;10.83;;;6.80;99.90;;;;;;5031030;28;20254;-61
2022/01/18 09:06:29;;;;;;;22.37;10.60;;;6.90;98.50;;;;;;5033077;28;20217;-61
2022/01/18 09:08:56;;;;;;;29.73;12.23;;;6.90;96.40;;;;;;5032428;28;20728;-61
2022/01/18 09:11:26;;;;;;;32.47;11.87;;;6.90;95.80;;;;;;5029787;28;20232;-59
2022/01/18 09:13:53;;;;;;;28.63;12.53;;;6.90;93.70;;;;;;5011681;28;20289;-59
2022/01/18 09:16:22;;;;;;;32.77;13.20;;;6.90;91.10;;;;;;5011341;28;20211;-60
2022/01/18 09:18:50;;;;;;;31.77;12.90;;;7.00;85.50;;;;;;5025737;28;20215;-59
2022/01/18 09:21:17;;;;;;;33.20;13.77;;;7.00;79.70;;;;;;5031195;28;20557;-59
2022/01/18 09:23:44;;;;;;;31.43;14.00;;;7.10;77.00;;;;;;5031368;28;20218;-63
2022/01/18 09:26:13;;;;;;;31.03;14.57;;;7.10;70.30;;;;;;5030906;28;20219;-63
2022/01/18 09:28:40;;;;;;;34.53;14.03;;;7.10;65.10;;;;;;5032118;28;20207;-64
2022/01/18 09:31:06;;;;;;;33.67;14.60;;;7.20;62.30;;;;;;5031091;28;20243;-65
2022/01/18 09:33:34;;;;;;;30.67;13.67;;;7.20;52.20;;;;;;5031862;28;20221;-57
2022/01/18 09:36:01;;;;;;;26.40;12.70;;;7.30;43.50;;;;;;5031302;28;20353;-59
2022/01/18 09:38:28;;;;;;;30.03;14.50;;;7.30;34.40;;;;;;5031099;28;20220;-59
2022/01/18 09:40:55;;;;;;;34.83;14.63;;;7.30;27.90;;;;;;5031263;28;20262;-61
2022/01/18 09:43:21;;;;;;;31.53;13.63;;;7.30;19.30;;;;;;5030931;28;20199;-60
2022/01/18 09:45:48;;;;;;;30.70;14.80;;;7.40;15.40;;;;;;5030800;28;20206;-59
2022/01/18 09:48:15;;;;;;;32.37;14.27;;;7.40;13.40;;;;;;5030835;28;20296;-61
2022/01/18 09:50:45;;;;;;;32.03;14.80;;;7.40;13.80;;;;;;5031162;28;20232;-61
2022/01/18 09:53:12;;;;;;;27.10;14.53;;;7.50;12.70;;;;;;5031482;28;20233;-59
2022/01/18 09:55:41;;;;;;;29.70;14.10;;;7.40;4.10;;;;;;5030688;28;20678;-60
2022/01/18 09:58:08;;;;;;;33.43;14.10;;;7.40;1.00;;;;;;5030577;28;20215;-63
2022/01/18 10:00:38;;;;;;;34.13;14.60;;;7.30;1.00;;;;;;5031144;28;20633;-63
2022/01/18 10:03:09;;;;;;;33.90;15.17;;;7.40;1.00;;;;;;5030501;28;20207;-63
2022/01/18 10:05:37;;;;;;;31.90;15.27;;;7.50;1.00;;;;;;5030715;28;20236;-63
2022/01/18 10:08:07;;;;;;;34.13;15.30;;;7.60;1.00;;;;;;5030280;28;20207;-60
2022/01/18 10:10:40;;;;;;;33.23;15.07;;;7.60;1.00;;;;;;5030587;28;20325;-60
2022/01/18 10:13:08;;;;;;;26.00;14.57;;;7.60;1.00;;;;;;5030528;28;20288;-60
2022/01/18 10:15:35;;;;;;;30.03;14.93;;;7.70;1.00;;;;;;5030824;28;20204;-60
2022/01/18 10:18:08;;;;;;;30.23;13.97;;;7.70;1.00;;;;;;5030659;28;20243;-64
2022/01/18 10:20:51;;;;;;;32.47;15.17;;;7.70;1.00;;;;;;5030241;28;20244;-61
2022/01/18 10:23:24;;;;;;;27.63;13.90;;;7.80;1.00;;;;;;5031221;28;20201;-61
2022/01/18 10:25:52;;;;;;;33.20;14.77;;;7.80;1.00;;;;;;5031536;28;20671;-59
2022/01/18 10:28:32;;;;;;;26.20;13.80;;;7.90;1.00;;;;;;5031335;28;20217;-60
2022/01/18 10:31:03;;;;;;;33.43;14.33;;;7.80;1.00;;;;;;5034201;28;20238;-61
2022/01/18 10:33:36;;;;;;;27.70;13.17;;;7.80;1.00;;;;;;5033875;28;20229;-59
2022/01/18 10:36:08;;;;;;;29.57;14.87;;;7.60;1.00;;;;;;5034643;28;20207;-62
2022/01/18 10:38:37;;;;;;;34.67;14.10;;;7.50;1.00;;;;;;5034351;28;20609;-60
2022/01/18 10:41:21;;;;;;;32.03;14.00;;;7.60;1.00;;;;;;5034321;28;20601;-60
2022/01/18 10:44:03;;;;;;;31.50;14.63;;;7.70;1.00;;;;;;5033903;28;20232;-62
2022/01/18 10:46:35;;;;;;;28.60;13.67;;;7.80;1.00;;;;;;5034147;28;20243;-60
2022/01/18 10:49:01;;;;;;;28.60;15.40;;;7.80;1.00;;;;;;5033896;28;20645;-60
2022/01/18 10:51:29;;;;;;;27.97;13.97;;;7.80;1.00;;;;;;5033673;28;20789;-60
2022/01/18 10:53:59;;;;;;;28.07;14.03;;;7.80;1.00;;;;;;5034092;28;20210;-62
2022/01/18 10:56:26;;;;;;;29.67;12.87;;;7.90;1.00;;;;;;5033631;28;20219;-60
2022/01/18 10:58:55;;;;;;;32.43;14.10;;;7.80;1.00;;;;;;5034243;28;20209;-62
2022/01/18 11:01:22;;;;;;;25.90;13.33;;;7.80;1.00;;;;;;5033714;28;20235;-63
2022/01/18 11:04:11;;;;;;;31.60;14.97;;;7.80;1.00;;;;;;5034253;28;20205;-63
2022/01/18 11:06:38;;;;;;;24.07;13.73;;;7.90;1.00;;;;;;5033769;28;20295;-61
2022/01/18 11:09:12;;;;;;;25.07;12.83;;;7.90;1.00;;;;;;5033832;28;20737;-62
2022/01/18 11:11:43;;;;;;;27.90;13.07;;;8.00;1.00;;;;;;5033929;28;20682;-61
2022/01/18 11:14:11;;;;;;;24.00;12.13;;;7.70;1.00;;;;;;5033536;28;20224;-60
2022/01/18 11:16:43;;;;;;;26.47;12.27;;;7.60;1.00;;;;;;5033280;28;20228;-61
2022/01/18 11:19:18;;;;;;;26.13;11.73;;;7.70;1.00;;;;;;5033162;28;20606;-59
2022/01/18 11:21:46;;;;;;;26.20;11.70;;;7.80;1.00;;;;;;5033790;28;20225;-60
2022/01/18 11:24:16;;;;;;;21.17;11.00;;;7.90;1.00;;;;;;5034202;28;20250;-59
2022/01/18 11:26:44;;;;;;;21.30;11.03;;;8.00;1.00;;;;;;5033462;28;20299;-58
2022/01/18 11:29:11;;;;;;;26.90;11.47;;;8.10;1.00;;;;;;5033750;28;20304;-59
2022/01/18 11:31:40;;;;;;;25.90;12.03;;;7.90;1.00;;;;;;5033011;28;20237;-61
2022/01/18 11:34:10;;;;;;;27.70;12.43;;;8.00;1.00;;;;;;5032900;28;20674;-62
2022/01/18 11:36:42;;;;;;;23.03;11.43;;;8.10;1.00;;;;;;5033347;28;20224;-60
2022/01/18 11:39:11;;;;;;;21.93;11.17;;;8.00;1.00;;;;;;5033787;28;20209;-58
2022/01/18 11:41:39;;;;;;;24.90;11.60;;;8.00;1.00;;;;;;5032795;28;20795;-61
2022/01/18 11:44:16;;;;;;;22.97;11.20;;;8.00;1.00;;;;;;5032789;28;20631;-60
2022/01/18 11:46:50;;;;;;;23.53;10.87;;;8.00;1.00;;;;;;5032792;28;20209;-60
2022/01/18 11:49:19;;;;;;;22.87;10.40;;;8.10;1.00;;;;;;5032927;28;20209;-61
2022/01/18 11:51:48;;;;;;;26.17;11.47;;;8.10;1.00;;;;;;5048725;28;20233;-60
2022/01/18 11:54:26;;;;;;;25.07;10.63;;;8.20;1.00;;;;;;5052789;28;20227;-60
2022/01/18 11:56:55;;;;;;;27.80;11.00;;;8.20;1.00;;;;;;5052491;28;20667;-59
2022/01/18 11:59:25;;;;;;;28.17;11.93;;;8.20;1.00;;;;;;5053012;28;20307;-59
2022/01/18 12:01:53;;;;;;;25.03;11.67;;;8.20;1.00;;;;;;5052452;28;20262;-57
2022/01/18 12:05:05;;;;;;;28.03;11.83;;;8.20;1.00;;;;;;5052957;28;20213;-60
2022/01/18 12:07:51;;;;;;;26.57;11.57;;;8.10;1.00;;;;;;5053358;28;20209;-62
2022/01/18 12:10:49;;;;;;;25.13;12.47;;;8.10;1.00;;;;;;5053231;28;20237;-58
2022/01/18 12:13:30;;;;;;;22.83;12.07;;;8.20;1.00;;;;;;5052558;28;20228;-58
2022/01/18 12:15:59;;;;;;;27.27;12.10;;;8.20;1.00;;;;;;5048605;28;20213;-61
2022/01/18 12:18:28;;;;;;;27.47;12.70;;;8.20;1.00;;;;;;5052765;28;20208;-61
2022/01/18 12:20:56;;;;;;;27.20;13.50;;;8.20;1.00;;;;;;5034198;28;20278;-61
2022/01/18 12:23:26;;;;;;;31.07;13.73;;;8.30;1.00;;;;;;5032577;28;20209;-58
2022/01/18 12:25:59;;;;;;;29.13;13.67;;;8.20;1.00;;;;;;5033377;28;20206;-61
2022/01/18 12:28:56;;;;;;;26.67;12.63;;;8.20;1.00;;;;;;5034392;28;20201;-61
2022/01/18 12:32:17;;;;;;;26.13;12.83;;;8.10;1.00;;;;;;5012536;28;20317;-61
2022/01/18 12:34:47;;;;;;;24.53;12.73;;;8.20;1.00;;;;;;5013138;28;20230;-62
2022/01/18 12:37:43;;;;;;;26.27;11.63;;;8.20;1.00;;;;;;5014272;28;20214;-61
2022/01/18 12:40:21;;;;;;;26.90;12.20;;;8.10;1.00;;;;;;5014272;28;20736;-60
2022/01/18 12:45:46;;;;;;;23.57;11.20;;;8.10;1.00;;;;;;5012820;28;20209;-62
2022/01/18 12:48:14;;;;;;;26.13;12.33;;;8.20;1.00;;;;;;5012449;28;20210;-61
2022/01/18 12:50:42;;;;;;;23.03;11.40;;;8.20;1.00;;;;;;5012463;28;20593;-63
2022/01/18 12:53:11;;;;;;;25.00;11.43;;;8.20;1.00;;;;;;5012935;28;20233;-60
2022/01/18 12:55:42;;;;;;;29.40;11.97;;;8.30;1.00;;;;;;5012137;28;20714;-61
2022/01/18 12:58:11;;;;;;;21.33;10.70;;;8.20;1.00;;;;;;5012672;28;20217;-61
2022/01/18 13:00:44;;;;;;;24.37;11.50;;;8.20;1.00;;;;;;5012303;28;20276;-61
2022/01/18 13:03:17;;;;;;;21.60;10.90;;;8.20;1.00;;;;;;5012245;28;20209;-60
2022/01/18 13:05:46;;;;;;;22.43;11.23;;;8.10;1.00;;;;;;5012128;28;20300;-59
2022/01/18 13:08:15;;;;;;;23.73;10.40;;;8.20;1.00;;;;;;5012249;28;20245;-60
2022/01/18 13:10:43;;;;;;;22.57;10.73;;;8.20;1.00;;;;;;5012370;28;20293;-60
2022/01/18 13:13:13;;;;;;;20.40;10.13;;;8.10;1.00;;;;;;5012229;28;20233;-62
2022/01/18 13:22:54;;;;;;;24.07;10.27;;;8.10;1.00;;;;;;5027719;28;20293;-64
2022/01/18 13:27:26;;;;;;;19.77;10.13;;;8.20;1.00;;;;;;5012205;28;20232;-63
2022/01/18 13:29:55;;;;;;;21.57;9.47;;;8.30;1.00;;;;;;5011877;28;20233;-63
2022/01/18 13:32:26;;;;;;;28.30;10.60;;;8.30;1.00;;;;;;5011497;28;20215;-63
2022/01/18 13:34:58;;;;;;;22.20;9.50;;;8.30;1.00;;;;;;5011714;28;20214;-63
2022/01/18 13:37:30;;;;;;;28.00;9.30;;;8.30;1.00;;;;;;5011430;28;20260;-64
2022/01/18 13:39:59;;;;;;;19.20;8.97;;;8.40;1.00;;;;;;5012481;28;20667;-63
2022/01/18 13:42:29;;;;;;;20.77;9.33;;;8.40;1.00;;;;;;5012124;28;20217;-58
2022/01/18 13:45:12;;;;;;;22.57;8.60;;;8.50;1.00;;;;;;5012472;28;20237;-59
2022/01/18 13:47:41;;;;;;;19.37;8.63;;;8.60;1.00;;;;;;5012268;28;20298;-60
2022/01/18 13:50:24;;;;;;;23.07;8.37;;;8.60;1.00;;;;;;5011893;28;20242;-59
2022/01/18 13:52:58;;;;;;;23.00;9.50;;;8.60;99.90;;;;;;5028220;28;20241;-62
2022/01/18 13:55:25;;;;;;;20.67;9.17;;;8.60;99.90;;;;;;5031396;28;20201;-62
2022/01/18 13:57:56;;;;;;;22.77;8.70;;;8.60;99.90;;;;;;5030917;28;20596;-62